Terminal Aerodrome Forecast
Issued by NWS Sioux Falls, SD

Home | Current Version | Previous Version | Graphics & Text | Print | Product List | Glossary Off
Versions: 1 2 3 4 5 6 7 8 9 10 11 12 13 14 15 16 17 18 19

000
FTUS43 KFSD 240526
TAFHON
TAF
KHON 240526Z 2406/2506 28014KT P6SM SCT070 BKN200
     FM241000 32016G24KT P6SM BKN025
     FM242200 34012KT P6SM SCT025
     FM250200 03007KT P6SM SCT025 OVC060=

USA.gov is the U.S. government's official web portal to all federal, state and local government web resources and services.